»·PEaware :: DAL1410 KLAS-KPHX

DAL1410 :: KLAS-KPHX

FLIGHT INFORMATION

Flight Status: Arrived
Operator:
Delta Air Lines
More flights by this operator :: More flights under this callsign
Pilot: Michael C. (16705)
Aircraft: BOEING 737-800
(B738)
More flights by this aircraft type
Origin: KLAS McCarran Intl
United States
Destination: KPHX Phoenix Sky Harbor Intl
United States
More flights between these airports :: More routes between these airports
Route: +PRFUM4 PRFUM WOTRO BRUSR1
File this flight plan on PilotEdge
Remarks: PBN / A1B1D1O1 DOF / 171009 REG / MC11DA EET / KZAB0019
Altitude:
(Current/Filed)
330ft
Speed:
(Current/Filed)
454kts
Departed: 08-Oct-17 09:05 PM
Arrived: 08-Oct-17 09:50 PM
Distance/Time
Traveled:
222nm/0:45
Distance/Time
To Go:
Arrived

Flight Plot

Page will automatically refresh every two minutes.

Flight plan parsing failed; only flown route is shown


Map Options




Map Legend


Flown Route
Filed Route
Departure Airport
Arrival Airport
Navaid (VOR, NDB)
Fix

Horizontal Profiles

Position Reports

Time Latitude Longitude Heading Altitude Ground
Speed
08-Oct-17 20:26 36.082151 -115.135731 299 2189ft 0kts
08-Oct-17 20:30 36.080478 -115.136559 45 2189ft 0kts
08-Oct-17 20:32 36.080478 -115.136559 45 2189ft 0kts
08-Oct-17 20:33 36.080478 -115.136559 45 2189ft 0kts
08-Oct-17 20:33 36.080478 -115.136559 45 2189ft 0kts
08-Oct-17 20:34 36.080478 -115.136559 45 2189ft 0kts
08-Oct-17 20:35 36.080478 -115.136559 45 2189ft 0kts
08-Oct-17 20:36 36.080478 -115.136559 45 2189ft 0kts
08-Oct-17 20:37 36.080478 -115.136559 45 2189ft 0kts
08-Oct-17 20:38 36.080478 -115.136559 45 2189ft 0kts
08-Oct-17 20:39 36.080478 -115.136559 45 2189ft 0kts
08-Oct-17 20:40 36.080478 -115.136559 45 2189ft 0kts
08-Oct-17 20:41 36.080478 -115.136559 45 2189ft 0kts
08-Oct-17 20:42 36.080478 -115.136559 45 2189ft 0kts
08-Oct-17 20:43 36.080478 -115.136559 45 2189ft 0kts
08-Oct-17 20:44 36.080478 -115.136559 45 2189ft 0kts
08-Oct-17 20:45 36.080478 -115.136559 45 2189ft 0kts
08-Oct-17 20:46 36.080478 -115.136559 45 2189ft 0kts
08-Oct-17 20:47 36.080478 -115.136559 45 2189ft 0kts
08-Oct-17 20:48 36.080461 -115.136580 44 2189ft 1kts
08-Oct-17 20:49 36.080008 -115.137138 44 2189ft 2kts
08-Oct-17 20:50 36.079968 -115.137187 44 2189ft 0kts
08-Oct-17 20:51 36.079969 -115.137186 44 2189ft 0kts
08-Oct-17 20:52 36.079970 -115.137185 44 2189ft 0kts
08-Oct-17 20:53 36.079971 -115.137183 44 2189ft 0kts
08-Oct-17 20:54 36.079396 -115.137103 228 2189ft 8kts
08-Oct-17 20:55 36.078956 -115.138490 284 2189ft 7kts
08-Oct-17 20:56 36.078384 -115.140193 250 2189ft 12kts
08-Oct-17 20:57 36.077572 -115.144654 273 2189ft 15kts
08-Oct-17 20:58 36.077946 -115.149748 274 2189ft 13kts
08-Oct-17 20:59 36.078069 -115.154697 270 2189ft 14kts
08-Oct-17 21:00 36.078959 -115.158254 358 2189ft 11kts
08-Oct-17 21:01 36.082613 -115.158260 359 2189ft 15kts
08-Oct-17 21:02 36.087164 -115.157886 23 2189ft 17kts
08-Oct-17 21:03 36.092055 -115.155035 24 2189ft 20kts
08-Oct-17 21:04 36.097250 -115.152118 23 2189ft 12kts
08-Oct-17 21:05 36.098000 -115.152434 300 2189ft 0kts
08-Oct-17 21:06 36.098001 -115.152435 300 2189ft 0kts
08-Oct-17 21:07 36.098001 -115.152436 300 2189ft 0kts
08-Oct-17 21:08 36.097322 -115.154322 203 2189ft 29kts
08-Oct-17 21:09 36.062236 -115.174277 204 4428ft 156kts
08-Oct-17 21:10 36.016358 -115.205438 228 5802ft 255kts
08-Oct-17 21:11 35.968736 -115.278814 207 8937ft 291kts
08-Oct-17 21:12 35.884385 -115.262835 142 10934ft 371kts
08-Oct-17 21:13 35.838069 -115.144817 104 13467ft 404kts
08-Oct-17 21:14 35.826035 -115.004455 80 16217ft 425kts
08-Oct-17 21:15 35.837827 -114.855258 81 18672ft 450kts
08-Oct-17 21:16 35.849092 -114.701251 81 19029ft 452kts
08-Oct-17 21:17 35.832933 -114.550714 123 19033ft 456kts
08-Oct-17 21:18 35.761174 -114.419085 124 20960ft 471kts
08-Oct-17 21:19 35.687807 -114.281058 124 23105ft 490kts
08-Oct-17 21:20 35.611934 -114.139026 124 25046ft 504kts
08-Oct-17 21:21 35.533858 -113.993462 124 26755ft 517kts
08-Oct-17 21:22 35.453743 -113.844785 124 28322ft 526kts
08-Oct-17 21:23 35.373055 -113.695684 124 30233ft 522kts
08-Oct-17 21:24 35.292924 -113.548248 124 32284ft 515kts
08-Oct-17 21:25 35.214075 -113.403784 124 32805ft 507kts
08-Oct-17 21:26 35.136031 -113.261034 124 32835ft 504kts
08-Oct-17 21:27 35.058236 -113.118939 124 32336ft 496kts
08-Oct-17 21:28 34.980778 -112.979004 125 29292ft 500kts
08-Oct-17 21:29 34.901328 -112.835976 125 27979ft 509kts
08-Oct-17 21:30 34.821001 -112.691969 125 24327ft 509kts
08-Oct-17 21:31 34.745191 -112.556556 125 22394ft 469kts
08-Oct-17 21:32 34.662846 -112.440427 145 20903ft 437kts
08-Oct-17 21:33 34.572135 -112.352911 144 19547ft 403kts
08-Oct-17 21:34 34.486567 -112.269507 144 19223ft 393kts
08-Oct-17 21:35 34.391791 -112.215626 174 18100ft 370kts
08-Oct-17 21:36 34.292258 -112.190391 173 16820ft 361kts
08-Oct-17 21:37 34.196996 -112.165734 173 16278ft 336kts
08-Oct-17 21:38 34.106891 -112.142527 173 15481ft 327kts
08-Oct-17 21:39 34.020026 -112.110288 166 14661ft 325kts
08-Oct-17 21:40 33.934148 -112.075358 165 13397ft 329kts
08-Oct-17 21:41 33.849471 -112.040953 165 11734ft 307kts
08-Oct-17 21:42 33.767674 -112.007858 164 10083ft 320kts
08-Oct-17 21:43 33.686019 -111.974819 164 8511ft 308kts
08-Oct-17 21:44 33.606170 -111.942590 164 7732ft 296kts
08-Oct-17 21:45 33.539218 -111.907872 134 7069ft 247kts
08-Oct-17 21:46 33.516261 -111.829540 116 6965ft 250kts
08-Oct-17 21:47 33.507904 -111.746851 119 6350ft 246kts
08-Oct-17 21:48 33.454165 -111.732334 201 6015ft 205kts
08-Oct-17 21:49 33.421931 -111.778291 275 5661ft 219kts
08-Oct-17 21:50 33.440007 -111.848811 269 3617ft 190kts
08-Oct-17 21:51 33.440933 -111.904854 265 2346ft 145kts
08-Oct-17 21:52 33.440762 -111.952863 268 1740ft 144kts
08-Oct-17 21:53 33.440787 -112.000376 269 1144ft 98kts
08-Oct-17 21:54 33.440421 -112.007279 200 1143ft 8kts
08-Oct-17 21:55 33.439631 -112.007357 183 1143ft 0kts
08-Oct-17 21:56 33.438148 -112.007453 177 1143ft 9kts
08-Oct-17 21:57 33.436938 -112.007951 268 1143ft 2kts
08-Oct-17 21:58 33.436938 -112.008039 269 1143ft 0kts
08-Oct-17 21:59 33.436938 -112.008039 269 1143ft 0kts

Navigation Log

Ident Type
Flight plan parsing failed, navigation log unavailable